createdAt,value
2023-05-24T00:00:47.434Z,83.83
2023-05-24T00:01:44.007Z,84.35
2023-05-24T00:02:43.587Z,84.01
2023-05-24T00:03:40.452Z,84.41
2023-05-24T00:04:37.199Z,85.23
2023-05-24T00:05:37.746Z,84.68
2023-05-24T00:06:37.491Z,85.21
2023-05-24T00:07:34.013Z,85.18
2023-05-24T00:08:30.542Z,85.82
2023-05-24T00:09:27.063Z,86.55
2023-05-24T00:10:23.629Z,86.88
2023-05-24T00:11:21.058Z,87.65
2023-05-24T00:12:17.669Z,87.38
2023-05-24T00:13:15.605Z,87.21
2023-05-24T00:14:12.143Z,86.64
2023-05-24T00:15:09.029Z,86.40
2023-05-24T00:16:05.798Z,86.24
2023-05-24T00:17:02.401Z,85.57
2023-05-24T00:17:59.122Z,85.64
2023-05-24T00:18:59.328Z,86.04
2023-05-24T00:19:56.636Z,85.98
2023-05-24T00:20:53.403Z,86.89
2023-05-24T00:21:50.098Z,87.63
2023-05-24T00:22:47.090Z,87.29
2023-05-24T00:23:44.166Z,86.49
2023-05-24T00:24:40.724Z,85.58
2023-05-24T00:25:37.267Z,85.21
2023-05-24T00:26:33.761Z,85.31
2023-05-24T00:27:30.381Z,85.68
2023-05-24T00:28:27.088Z,85.63
2023-05-24T00:29:23.563Z,85.51
2023-05-24T00:30:20.045Z,86.03
2023-05-24T00:31:16.747Z,85.97
2023-05-24T00:32:13.590Z,86.05
2023-05-24T00:33:10.240Z,85.85
2023-05-24T00:34:07.763Z,86.08
2023-05-24T00:35:04.466Z,86.93
2023-05-24T00:36:01.109Z,87.94
2023-05-24T00:36:58.720Z,87.88
2023-05-24T00:37:55.207Z,88.26
2023-05-24T00:38:52.887Z,88.56
2023-05-24T00:39:49.474Z,88.98
2023-05-24T00:40:46.012Z,89.10
2023-05-24T00:41:42.576Z,89.67
2023-05-24T00:42:39.132Z,89.40
2023-05-24T00:43:37.175Z,89.68
2023-05-24T00:44:33.683Z,89.75
2023-05-24T00:45:32.400Z,89.47
2023-05-24T00:46:33.354Z,88.80
2023-05-24T00:47:30.172Z,88.25
2023-05-24T00:48:28.875Z,88.56
2023-05-24T00:49:26.491Z,88.95
2023-05-24T00:50:23.400Z,89.09
2023-05-24T00:51:20.057Z,89.06
2023-05-24T00:52:17.073Z,89.43
2023-05-24T00:53:13.690Z,89.63
2023-05-24T00:54:10.659Z,89.74
2023-05-24T00:55:07.554Z,89.49
2023-05-24T00:56:04.406Z,89.63
2023-05-24T00:57:00.986Z,88.97
2023-05-24T00:57:57.923Z,88.59
2023-05-24T00:58:57.140Z,88.19
2023-05-24T00:59:53.662Z,87.81
2023-05-24T01:00:51.111Z,87.51
2023-05-24T01:01:47.656Z,88.02
2023-05-24T01:02:44.293Z,88.00
2023-05-24T01:03:41.823Z,87.50
2023-05-24T01:04:38.499Z,87.46
2023-05-24T01:05:34.967Z,87.42
2023-05-24T01:06:36.376Z,88.04
2023-05-24T01:07:57.344Z,88.18
2023-05-24T01:08:56.431Z,88.29
2023-05-24T01:09:56.762Z,88.31
2023-05-24T01:11:19.528Z,89.15
2023-05-24T01:12:22.160Z,90.62
2023-05-24T01:13:29.808Z,91.15
2023-05-24T01:14:29.433Z,90.94
2023-05-24T01:15:41.011Z,90.86
2023-05-24T01:16:52.048Z,90.15
2023-05-24T01:17:55.878Z,90.30
2023-05-24T01:19:02.559Z,90.54
2023-05-24T01:20:02.319Z,90.92
2023-05-24T01:21:06.635Z,91.26
2023-05-24T01:22:06.641Z,91.63
2023-05-24T01:23:19.050Z,91.23
2023-05-24T01:24:25.489Z,91.02
2023-05-24T01:25:39.122Z,91.84
2023-05-24T01:26:54.633Z,91.98
2023-05-24T01:27:51.398Z,91.98
2023-05-24T01:28:48.387Z,92.04
2023-05-24T01:29:44.928Z,91.14
2023-05-24T01:30:42.267Z,90.73
2023-05-24T01:31:39.047Z,90.47
2023-05-24T01:32:35.905Z,90.81
2023-05-24T01:33:32.788Z,90.73
2023-05-24T01:34:29.963Z,89.99
2023-05-24T01:35:26.480Z,90.09
2023-05-24T01:36:23.138Z,90.97
2023-05-24T01:37:19.885Z,91.57
2023-05-24T01:38:16.433Z,91.11
2023-05-24T01:39:13.481Z,90.74
2023-05-24T01:40:11.142Z,90.66
2023-05-24T01:41:16.170Z,90.64
2023-05-24T01:42:26.717Z,89.59
2023-05-24T01:43:29.372Z,89.52
2023-05-24T01:44:29.532Z,89.33
2023-05-24T01:45:31.157Z,89.34
2023-05-24T01:46:37.732Z,90.14
2023-05-24T01:47:52.598Z,89.85
2023-05-24T01:48:49.116Z,89.78
2023-05-24T01:49:49.794Z,89.72
2023-05-24T01:50:52.493Z,89.84
2023-05-24T01:51:54.909Z,89.56
2023-05-24T01:52:52.456Z,90.80
2023-05-24T01:53:50.910Z,91.10
2023-05-24T01:54:50.546Z,91.83
2023-05-24T01:55:48.779Z,92.22
2023-05-24T01:56:47.868Z,92.08
2023-05-24T01:57:46.288Z,92.19
2023-05-24T01:58:45.662Z,91.76
2023-05-24T01:59:43.125Z,91.56
2023-05-24T02:00:40.824Z,91.25
2023-05-24T02:01:37.874Z,91.46
2023-05-24T02:02:34.716Z,91.24
2023-05-24T02:03:31.447Z,91.33
2023-05-24T02:04:28.091Z,91.65
2023-05-24T02:05:24.833Z,91.31
2023-05-24T02:06:21.307Z,91.21
2023-05-24T02:07:17.833Z,90.97
2023-05-24T02:08:14.591Z,91.12
2023-05-24T02:09:11.174Z,91.28
2023-05-24T02:10:07.926Z,91.80
2023-05-24T02:11:04.497Z,91.56
2023-05-24T02:12:01.065Z,91.97
2023-05-24T02:12:59.602Z,92.37
2023-05-24T02:13:56.191Z,93.26
2023-05-24T02:14:54.663Z,93.55
2023-05-24T02:15:53.756Z,94.30
2023-05-24T02:16:50.813Z,94.43
2023-05-24T02:17:48.249Z,94.21
2023-05-24T02:18:46.823Z,94.16
2023-05-24T02:19:43.660Z,93.82
2023-05-24T02:20:40.840Z,93.23
2023-05-24T02:21:37.900Z,93.56
2023-05-24T02:22:34.487Z,93.31
2023-05-24T02:23:31.665Z,92.78
2023-05-24T02:24:28.253Z,92.83
2023-05-24T02:25:24.734Z,93.31
2023-05-24T02:26:21.238Z,93.55
2023-05-24T02:27:17.764Z,94.24
2023-05-24T02:28:14.299Z,94.47
2023-05-24T02:29:11.327Z,94.53
2023-05-24T02:30:08.290Z,95.14
2023-05-24T02:31:05.019Z,95.43
2023-05-24T02:32:01.855Z,95.20
2023-05-24T02:32:58.460Z,94.09
2023-05-24T02:33:58.560Z,93.17
2023-05-24T02:34:55.016Z,91.82
2023-05-24T02:35:51.722Z,91.38
2023-05-24T02:36:48.217Z,92.95
2023-05-24T02:37:44.766Z,94.01
2023-05-24T02:38:41.440Z,94.50
2023-05-24T02:39:37.940Z,94.84
2023-05-24T02:40:34.789Z,95.09
2023-05-24T02:41:31.326Z,95.24
2023-05-24T02:42:27.829Z,95.21
2023-05-24T02:43:24.368Z,95.80
2023-05-24T02:44:20.880Z,95.50
2023-05-24T02:45:17.424Z,95.81
2023-05-24T02:46:14.432Z,96.15
2023-05-24T02:47:10.924Z,96.46
2023-05-24T02:48:07.443Z,96.52
2023-05-24T02:49:05.169Z,96.91
2023-05-24T02:50:01.689Z,97.11
2023-05-24T02:50:58.214Z,97.18
2023-05-24T02:51:54.806Z,97.17
2023-05-24T02:52:51.781Z,97.39
2023-05-24T02:53:48.357Z,97.28
2023-05-24T02:54:44.938Z,97.24
2023-05-24T02:55:44.045Z,97.61
2023-05-24T02:56:41.054Z,98.25
2023-05-24T02:57:37.936Z,98.08
2023-05-24T02:58:35.096Z,98.32
2023-05-24T02:59:32.317Z,97.39
2023-05-24T03:00:28.957Z,97.68
2023-05-24T03:01:25.573Z,97.50
2023-05-24T03:02:22.424Z,97.47
2023-05-24T03:03:19.065Z,97.24
2023-05-24T03:04:15.766Z,96.97
2023-05-24T03:05:12.273Z,96.45
2023-05-24T03:06:08.855Z,96.34
2023-05-24T03:07:05.393Z,97.08
2023-05-24T03:08:01.961Z,96.98
2023-05-24T03:08:59.365Z,97.35
2023-05-24T03:09:55.929Z,97.55
2023-05-24T03:10:52.493Z,97.78
2023-05-24T03:11:48.991Z,97.32
2023-05-24T03:12:45.743Z,97.62
2023-05-24T03:13:42.566Z,96.71
2023-05-24T03:14:39.106Z,96.79
2023-05-24T03:15:35.677Z,96.88
2023-05-24T03:16:33.134Z,96.49
2023-05-24T03:17:29.686Z,96.17
2023-05-24T03:18:26.401Z,96.31
2023-05-24T03:19:22.949Z,96.71
2023-05-24T03:20:21.213Z,97.04
2023-05-24T03:21:20.751Z,97.52
2023-05-24T03:22:17.527Z,96.62
2023-05-24T03:23:15.045Z,96.30
2023-05-24T03:24:13.235Z,96.50
2023-05-24T03:25:09.875Z,96.37
2023-05-24T03:26:07.453Z,96.75
2023-05-24T03:27:04.662Z,97.10
2023-05-24T03:28:02.697Z,96.98
2023-05-24T03:28:59.243Z,97.10
2023-05-24T03:29:55.795Z,97.50
2023-05-24T03:30:52.330Z,97.46
2023-05-24T03:31:48.907Z,97.06
2023-05-24T03:32:45.470Z,96.58
2023-05-24T03:33:41.978Z,96.66
2023-05-24T03:34:38.460Z,96.64
2023-05-24T03:35:34.957Z,96.68
2023-05-24T03:36:32.842Z,96.34
2023-05-24T03:37:29.371Z,96.72
2023-05-24T03:38:26.019Z,96.39
2023-05-24T03:39:22.566Z,95.67
2023-05-24T03:40:19.258Z,95.83
2023-05-24T03:41:16.309Z,95.28
2023-05-24T03:42:12.938Z,94.70
2023-05-24T03:43:09.537Z,95.48
2023-05-24T03:44:06.083Z,95.15
2023-05-24T03:45:02.599Z,94.67
2023-05-24T03:45:59.220Z,93.27
2023-05-24T03:46:55.786Z,92.84
2023-05-24T03:47:52.370Z,92.04
2023-05-24T03:48:49.685Z,91.75
2023-05-24T03:49:46.266Z,91.61
2023-05-24T03:50:43.006Z,91.46
2023-05-24T03:51:39.686Z,91.39
2023-05-24T03:52:36.243Z,91.17
2023-05-24T03:53:32.826Z,91.81
2023-05-24T03:54:29.474Z,91.71
2023-05-24T03:55:26.111Z,92.02
2023-05-24T03:56:22.780Z,92.09
2023-05-24T03:57:19.257Z,91.91
2023-05-24T03:58:15.842Z,92.08
2023-05-24T03:59:12.382Z,92.20
2023-05-24T04:00:10.033Z,93.05
2023-05-24T04:01:06.828Z,92.52
2023-05-24T04:02:03.661Z,91.78
2023-05-24T04:03:01.819Z,91.59
2023-05-24T04:03:58.638Z,91.03
2023-05-24T04:04:55.813Z,90.60
2023-05-24T04:05:52.324Z,90.10
2023-05-24T04:06:49.779Z,90.78
2023-05-24T04:07:46.609Z,90.95
2023-05-24T04:08:43.206Z,90.91
2023-05-24T04:09:40.420Z,91.06
2023-05-24T04:10:36.925Z,90.77
2023-05-24T04:11:33.591Z,90.65
2023-05-24T04:12:30.170Z,90.15
2023-05-24T04:13:26.682Z,90.13
2023-05-24T04:14:23.276Z,88.59
2023-05-24T04:15:19.823Z,88.66
2023-05-24T04:16:16.346Z,87.86
2023-05-24T04:17:13.138Z,88.16
2023-05-24T04:18:10.239Z,88.45
2023-05-24T04:19:07.244Z,88.55
2023-05-24T04:20:05.679Z,88.74
2023-05-24T04:21:02.224Z,89.56
2023-05-24T04:21:58.784Z,89.48
2023-05-24T04:22:56.354Z,89.46
2023-05-24T04:23:53.223Z,89.10
2023-05-24T04:24:49.819Z,88.74
2023-05-24T04:25:46.361Z,89.33
2023-05-24T04:26:42.838Z,89.39
2023-05-24T04:27:40.014Z,89.62
2023-05-24T04:28:38.210Z,89.88
2023-05-24T04:29:34.838Z,89.98
2023-05-24T04:30:31.726Z,90.11
2023-05-24T04:31:30.367Z,89.24
2023-05-24T04:32:30.530Z,88.55
2023-05-24T04:33:27.787Z,88.48
2023-05-24T04:34:24.486Z,89.15
2023-05-24T04:35:21.286Z,89.05
2023-05-24T04:36:17.936Z,88.79
2023-05-24T04:37:17.292Z,88.17
2023-05-24T04:38:14.367Z,87.90
2023-05-24T04:39:11.623Z,88.06
2023-05-24T04:40:08.719Z,87.83
2023-05-24T04:41:08.375Z,87.67
2023-05-24T04:42:05.090Z,88.34
2023-05-24T04:43:01.659Z,88.42
2023-05-24T04:43:59.945Z,87.85
2023-05-24T04:44:56.440Z,86.83
2023-05-24T04:45:56.305Z,86.72
2023-05-24T04:46:53.475Z,85.48
2023-05-24T04:47:50.096Z,86.25
2023-05-24T04:48:46.829Z,85.82
2023-05-24T04:49:43.456Z,86.13
2023-05-24T04:50:40.351Z,86.50
2023-05-24T04:51:38.770Z,85.69
2023-05-24T04:52:36.534Z,85.30
2023-05-24T04:53:33.253Z,83.83
2023-05-24T04:54:29.871Z,82.94
2023-05-24T04:55:26.503Z,81.95
2023-05-24T04:56:23.247Z,80.79
2023-05-24T04:57:19.890Z,80.88
2023-05-24T04:58:17.092Z,81.48
2023-05-24T04:59:13.711Z,82.85
2023-05-24T05:00:10.574Z,83.20
2023-05-24T05:01:07.498Z,83.10
2023-05-24T05:02:04.046Z,83.13
2023-05-24T05:03:00.717Z,82.47
2023-05-24T05:03:57.408Z,83.02
2023-05-24T05:04:53.950Z,83.60
2023-05-24T05:05:50.517Z,81.79
2023-05-24T05:06:48.353Z,80.35
2023-05-24T05:07:45.472Z,79.30
2023-05-24T05:08:42.016Z,80.15
2023-05-24T05:09:38.483Z,80.32
2023-05-24T05:10:35.922Z,80.25
2023-05-24T05:11:32.559Z,79.84
2023-05-24T05:12:29.165Z,80.72
2023-05-24T05:13:25.730Z,80.83
2023-05-24T05:14:22.278Z,81.16
2023-05-24T05:15:18.941Z,81.33
2023-05-24T05:16:15.547Z,80.94
2023-05-24T05:17:12.056Z,80.95
2023-05-24T05:18:08.630Z,80.18
2023-05-24T05:19:05.897Z,79.70
2023-05-24T05:20:03.777Z,77.69
2023-05-24T05:21:00.353Z,77.19
2023-05-24T05:21:56.850Z,77.73
2023-05-24T05:22:53.474Z,78.21
2023-05-24T05:23:50.139Z,78.21
2023-05-24T05:24:46.799Z,78.28
2023-05-24T05:25:43.354Z,79.10
2023-05-24T05:26:39.976Z,78.32
2023-05-24T05:27:36.726Z,78.88
2023-05-24T05:28:33.443Z,77.53
2023-05-24T05:29:29.998Z,77.32
2023-05-24T05:30:26.510Z,77.63
2023-05-24T05:31:23.421Z,78.82
2023-05-24T05:32:20.204Z,78.60
2023-05-24T05:33:16.704Z,78.33
2023-05-24T05:34:13.337Z,78.43
2023-05-24T05:35:09.984Z,78.52
2023-05-24T05:36:06.703Z,78.03
2023-05-24T05:37:03.349Z,77.64
2023-05-24T05:37:59.886Z,78.04
2023-05-24T05:38:56.392Z,78.07
2023-05-24T05:39:52.895Z,77.47
2023-05-24T05:40:49.518Z,77.76
2023-05-24T05:41:46.492Z,77.51
2023-05-24T05:42:43.361Z,77.09
2023-05-24T05:43:39.942Z,77.42
2023-05-24T05:44:36.570Z,77.38
2023-05-24T05:45:33.061Z,77.25
2023-05-24T05:46:29.655Z,77.33
2023-05-24T05:47:26.276Z,77.50
2023-05-24T05:48:22.924Z,77.94
2023-05-24T05:49:19.859Z,78.62
2023-05-24T05:50:16.406Z,77.76
2023-05-24T05:51:13.151Z,76.82
2023-05-24T05:52:09.739Z,76.89
2023-05-24T05:53:06.248Z,76.92
2023-05-24T05:54:02.829Z,76.10
2023-05-24T05:55:00.351Z,76.48
2023-05-24T05:55:56.888Z,74.94
2023-05-24T05:56:53.416Z,75.54
2023-05-24T05:57:49.960Z,75.96
2023-05-24T05:58:46.567Z,75.47
2023-05-24T05:59:43.192Z,74.88
2023-05-24T06:00:40.494Z,76.06
2023-05-24T06:01:37.138Z,75.81
2023-05-24T06:02:33.819Z,74.71
2023-05-24T06:03:30.639Z,73.87
2023-05-24T06:04:27.353Z,73.55
2023-05-24T06:05:23.950Z,72.92
2023-05-24T06:06:20.469Z,72.25
2023-05-24T06:07:16.952Z,72.34
2023-05-24T06:08:13.488Z,72.27
2023-05-24T06:09:10.070Z,71.99
2023-05-24T06:10:06.995Z,71.46
2023-05-24T06:11:03.633Z,71.74
2023-05-24T06:12:00.184Z,71.70
2023-05-24T06:12:56.673Z,72.92
2023-05-24T06:13:53.545Z,73.30
2023-05-24T06:14:50.740Z,73.13
2023-05-24T06:15:47.593Z,72.48
2023-05-24T06:16:46.064Z,71.63
2023-05-24T06:17:43.981Z,71.33
2023-05-24T06:18:47.435Z,70.72
2023-05-24T06:19:54.093Z,69.46
2023-05-24T06:20:50.680Z,69.21
2023-05-24T06:21:50.877Z,68.46
2023-05-24T06:22:49.732Z,70.35
2023-05-24T06:23:46.233Z,70.57
2023-05-24T06:24:43.882Z,69.88
2023-05-24T06:25:40.584Z,70.36
2023-05-24T06:26:37.648Z,69.94
2023-05-24T06:27:34.307Z,70.01
2023-05-24T06:28:30.999Z,70.94
2023-05-24T06:29:27.736Z,71.63
2023-05-24T06:30:24.424Z,71.97
2023-05-24T06:31:21.425Z,70.61
2023-05-24T06:32:18.145Z,69.78
2023-05-24T06:33:14.920Z,68.38
2023-05-24T06:34:11.411Z,69.93
2023-05-24T06:35:08.302Z,69.20
2023-05-24T06:36:05.032Z,69.78
2023-05-24T06:37:02.617Z,69.18
2023-05-24T06:37:59.292Z,67.20
2023-05-24T06:38:55.890Z,68.65
2023-05-24T06:39:52.455Z,70.07
2023-05-24T06:40:49.251Z,68.99
2023-05-24T06:41:47.022Z,67.89
2023-05-24T06:42:43.657Z,67.96
2023-05-24T06:43:40.522Z,68.20
2023-05-24T06:44:37.134Z,69.05
2023-05-24T06:45:33.706Z,69.59
2023-05-24T06:46:30.631Z,69.09
2023-05-24T06:47:27.309Z,69.24
2023-05-24T06:48:24.030Z,67.78
2023-05-24T06:49:21.187Z,66.55
2023-05-24T06:50:18.651Z,66.24
2023-05-24T06:51:15.224Z,65.61
2023-05-24T06:52:11.826Z,64.33
2023-05-24T06:53:08.801Z,65.06
2023-05-24T06:54:05.817Z,64.81
2023-05-24T06:55:02.328Z,62.69
2023-05-24T06:55:58.977Z,62.46
2023-05-24T06:56:55.973Z,63.21
2023-05-24T06:57:52.493Z,63.29
2023-05-24T06:58:48.982Z,62.78
2023-05-24T06:59:45.555Z,62.12
2023-05-24T07:00:43.002Z,63.48
2023-05-24T07:01:40.204Z,64.66
2023-05-24T07:02:36.881Z,64.31
2023-05-24T07:03:33.459Z,64.80
2023-05-24T07:04:30.105Z,64.38
2023-05-24T07:05:26.729Z,64.40
2023-05-24T07:06:23.341Z,63.37
2023-05-24T07:07:20.750Z,61.74
2023-05-24T07:08:17.238Z,61.23
2023-05-24T07:09:14.341Z,63.00
2023-05-24T07:10:11.942Z,63.15
2023-05-24T07:11:09.727Z,64.87
2023-05-24T07:12:08.865Z,64.54
2023-05-24T07:13:05.858Z,62.93
2023-05-24T07:14:02.452Z,61.02
2023-05-24T07:14:58.990Z,59.20
2023-05-24T07:15:55.757Z,59.98
2023-05-24T07:16:52.420Z,60.33
2023-05-24T07:17:49.044Z,60.29
2023-05-24T07:18:46.214Z,59.10
2023-05-24T07:19:42.869Z,60.96
2023-05-24T07:20:39.550Z,62.16
2023-05-24T07:21:37.621Z,62.82
2023-05-24T07:22:34.283Z,61.44
2023-05-24T07:23:31.236Z,60.47
2023-05-24T07:24:27.896Z,60.54
2023-05-24T07:25:24.841Z,60.59
2023-05-24T07:26:21.974Z,60.87
2023-05-24T07:27:18.494Z,61.45
2023-05-24T07:28:15.440Z,60.99
2023-05-24T07:29:12.142Z,60.83
2023-05-24T07:30:19.660Z,61.48
2023-05-24T07:31:26.647Z,61.21
2023-05-24T07:32:23.306Z,61.63
2023-05-24T07:33:19.878Z,60.72
2023-05-24T07:34:16.502Z,60.73
2023-05-24T07:35:13.732Z,61.02
2023-05-24T07:36:10.747Z,60.08
2023-05-24T07:37:07.539Z,61.09
2023-05-24T07:38:04.046Z,58.99
2023-05-24T07:39:01.488Z,60.67
2023-05-24T07:39:58.089Z,60.59
2023-05-24T07:40:54.873Z,60.68
2023-05-24T07:41:51.478Z,58.99
2023-05-24T07:42:48.143Z,59.11
2023-05-24T07:43:44.644Z,57.96
2023-05-24T07:44:41.411Z,60.64
2023-05-24T07:45:37.916Z,59.71
2023-05-24T07:46:35.346Z,59.53
2023-05-24T07:47:32.114Z,58.33
2023-05-24T07:48:28.768Z,58.80
2023-05-24T07:49:25.358Z,56.16
2023-05-24T07:50:22.000Z,56.16
2023-05-24T07:51:18.637Z,57.48
2023-05-24T07:52:15.465Z,57.16
2023-05-24T07:53:12.001Z,57.53
2023-05-24T07:54:08.515Z,57.48
2023-05-24T07:55:06.255Z,57.63
2023-05-24T07:56:02.905Z,58.89
2023-05-24T07:56:59.563Z,56.38
2023-05-24T07:57:56.834Z,56.93
2023-05-24T07:58:56.929Z,57.29
2023-05-24T07:59:53.442Z,57.22
2023-05-24T08:00:50.078Z,55.31
2023-05-24T08:01:47.866Z,56.12
2023-05-24T08:02:46.482Z,56.76
2023-05-24T08:03:43.687Z,56.76
2023-05-24T08:04:40.340Z,58.08
2023-05-24T08:05:36.904Z,57.05
2023-05-24T08:06:33.473Z,57.02
2023-05-24T08:07:30.177Z,53.42
2023-05-24T08:08:26.843Z,55.33
2023-05-24T08:09:23.561Z,57.10
2023-05-24T08:10:20.179Z,57.28
2023-05-24T08:11:17.070Z,57.18
2023-05-24T08:12:15.586Z,57.28
2023-05-24T08:13:13.615Z,57.50
2023-05-24T08:14:10.166Z,58.29
2023-05-24T08:15:07.345Z,57.83
2023-05-24T08:16:03.998Z,57.30
2023-05-24T08:17:03.570Z,58.18
2023-05-24T08:18:00.191Z,57.23
2023-05-24T08:18:56.968Z,58.42
2023-05-24T08:19:53.560Z,56.95
2023-05-24T08:20:50.184Z,57.73
2023-05-24T08:21:46.865Z,56.91
2023-05-24T08:22:43.725Z,57.47
2023-05-24T08:23:40.797Z,57.13
2023-05-24T08:24:37.291Z,55.58
2023-05-24T08:25:33.867Z,56.17
2023-05-24T08:26:30.410Z,56.69
2023-05-24T08:27:28.915Z,55.91
2023-05-24T08:28:26.312Z,55.62
2023-05-24T08:29:22.904Z,54.77
2023-05-24T08:30:20.085Z,55.36
2023-05-24T08:31:17.085Z,56.44
2023-05-24T08:32:14.251Z,57.64
2023-05-24T08:33:11.035Z,56.32
2023-05-24T08:34:07.615Z,54.63
2023-05-24T08:35:19.220Z,55.64
2023-05-24T08:36:17.489Z,55.10
2023-05-24T08:37:16.274Z,53.60
2023-05-24T08:38:12.935Z,53.99
2023-05-24T08:39:09.750Z,55.38
2023-05-24T08:40:09.776Z,54.83
2023-05-24T08:41:08.444Z,55.27
2023-05-24T08:42:09.449Z,55.61
2023-05-24T08:43:11.955Z,51.82
2023-05-24T08:44:08.562Z,52.42
2023-05-24T08:45:09.374Z,53.24
2023-05-24T08:46:07.261Z,50.87
2023-05-24T08:47:04.244Z,50.58
2023-05-24T08:48:02.007Z,48.03
2023-05-24T08:48:59.012Z,45.45
2023-05-24T08:49:55.691Z,46.24
2023-05-24T08:50:52.274Z,45.60
2023-05-24T08:51:49.798Z,47.59
2023-05-24T08:52:46.435Z,46.55
2023-05-24T08:53:48.567Z,48.23
2023-05-24T08:54:45.838Z,46.62
2023-05-24T08:55:44.064Z,49.83
2023-05-24T08:56:41.456Z,46.98
2023-05-24T08:57:40.004Z,44.52
2023-05-24T08:58:38.724Z,45.91
2023-05-24T08:59:35.322Z,43.34
2023-05-24T09:00:32.109Z,42.54
2023-05-24T09:01:31.417Z,43.41
2023-05-24T09:02:30.191Z,43.42
2023-05-24T09:03:27.107Z,43.83
2023-05-24T09:04:24.410Z,45.44
2023-05-24T09:05:23.955Z,45.29
2023-05-24T09:06:20.929Z,46.45
2023-05-24T09:07:23.663Z,46.49
2023-05-24T09:08:20.634Z,44.38
2023-05-24T09:09:18.399Z,44.40
2023-05-24T09:10:15.165Z,44.80
2023-05-24T09:11:11.943Z,44.46
2023-05-24T09:12:08.819Z,44.89
2023-05-24T09:13:06.414Z,46.29
2023-05-24T09:14:02.960Z,44.95
2023-05-24T09:14:59.544Z,44.54
2023-05-24T09:15:56.175Z,45.63
2023-05-24T09:16:53.216Z,44.36
2023-05-24T09:17:49.801Z,44.25
2023-05-24T09:18:46.417Z,44.26
2023-05-24T09:19:45.184Z,43.43
2023-05-24T09:20:42.265Z,43.37
2023-05-24T09:21:39.094Z,43.42
2023-05-24T09:22:40.676Z,42.95
2023-05-24T09:23:37.732Z,43.65
2023-05-24T09:24:40.613Z,43.50
2023-05-24T09:25:37.253Z,43.36
2023-05-24T09:26:36.133Z,44.29
2023-05-24T09:27:34.529Z,43.68
2023-05-24T09:28:32.555Z,43.65
2023-05-24T09:29:29.210Z,42.39
2023-05-24T09:30:25.937Z,41.33
2023-05-24T09:31:32.217Z,42.78
2023-05-24T09:32:29.156Z,43.29
2023-05-24T09:33:29.128Z,43.76
2023-05-24T09:34:25.687Z,42.18
2023-05-24T09:35:22.318Z,39.84
2023-05-24T09:36:18.910Z,42.42
2023-05-24T09:37:19.511Z,44.31
2023-05-24T09:38:19.598Z,42.31
2023-05-24T09:39:21.021Z,43.41
2023-05-24T09:40:19.060Z,40.15
2023-05-24T09:41:15.835Z,40.56
2023-05-24T09:42:17.623Z,41.96
2023-05-24T09:43:14.140Z,42.51
2023-05-24T09:44:13.296Z,41.50
2023-05-24T09:45:10.768Z,42.21
2023-05-24T09:46:07.289Z,40.88
2023-05-24T09:47:06.958Z,42.00
2023-05-24T09:48:03.974Z,42.10
2023-05-24T09:49:03.671Z,44.18
2023-05-24T09:50:00.963Z,41.09
2023-05-24T09:51:04.246Z,38.05
2023-05-24T09:52:01.779Z,39.83
2023-05-24T09:52:58.337Z,41.87
2023-05-24T09:54:00.887Z,40.86
2023-05-24T09:54:57.569Z,41.48
2023-05-24T09:55:55.102Z,40.40
2023-05-24T09:56:51.718Z,40.37
2023-05-24T09:57:53.133Z,41.14
2023-05-24T09:58:49.763Z,42.59
2023-05-24T09:59:46.720Z,42.05
2023-05-24T10:00:43.770Z,42.39
2023-05-24T10:01:40.909Z,40.22
2023-05-24T10:02:51.483Z,39.02
2023-05-24T10:03:58.457Z,40.55
2023-05-24T10:05:00.675Z,39.80
2023-05-24T10:05:58.221Z,41.06
2023-05-24T10:06:58.745Z,40.92
2023-05-24T10:07:59.771Z,43.87
2023-05-24T10:08:57.196Z,42.37
2023-05-24T10:09:53.878Z,42.27
2023-05-24T10:10:50.751Z,44.35
2023-05-24T10:11:47.460Z,42.85
2023-05-24T10:12:46.837Z,42.51
2023-05-24T10:13:43.656Z,41.69
2023-05-24T10:14:40.161Z,42.43
2023-05-24T10:15:36.739Z,43.93
2023-05-24T10:16:33.604Z,43.71
2023-05-24T10:17:30.265Z,43.46
2023-05-24T10:18:26.950Z,44.54
2023-05-24T10:19:24.199Z,42.83
2023-05-24T10:20:21.293Z,42.43
2023-05-24T10:21:20.029Z,43.61
2023-05-24T10:22:17.188Z,44.76
2023-05-24T10:23:19.255Z,44.60
2023-05-24T10:24:19.820Z,42.02
2023-05-24T10:25:25.559Z,41.76
2023-05-24T10:26:26.277Z,41.12
2023-05-24T10:27:24.743Z,39.80
2023-05-24T10:28:22.691Z,39.75
2023-05-24T10:29:27.801Z,41.54
2023-05-24T10:30:41.825Z,42.48
2023-05-24T10:31:41.442Z,41.47
2023-05-24T10:32:39.412Z,39.27
2023-05-24T10:33:37.521Z,39.12
2023-05-24T10:34:34.491Z,39.47
2023-05-24T10:35:33.865Z,41.70
2023-05-24T10:36:30.701Z,38.65
2023-05-24T10:37:27.325Z,37.97
2023-05-24T10:38:25.035Z,37.62
2023-05-24T10:39:22.692Z,39.57
2023-05-24T10:40:20.904Z,34.72
2023-05-24T10:41:18.185Z,35.99
2023-05-24T10:42:14.754Z,36.50
2023-05-24T10:43:11.687Z,35.74
2023-05-24T10:44:13.263Z,35.57
2023-05-24T10:45:25.017Z,36.94
2023-05-24T10:46:22.815Z,38.08
2023-05-24T10:47:20.870Z,37.86
2023-05-24T10:48:17.733Z,36.73
2023-05-24T10:49:15.150Z,36.59
2023-05-24T10:50:22.243Z,36.23
2023-05-24T10:51:33.015Z,35.83
2023-05-24T10:52:36.312Z,34.61
2023-05-24T10:53:38.801Z,35.03
2023-05-24T10:54:39.979Z,34.94
2023-05-24T10:55:52.568Z,36.14
2023-05-24T10:56:50.488Z,35.34
2023-05-24T10:57:47.776Z,34.01
2023-05-24T10:58:48.848Z,35.66
2023-05-24T10:59:45.518Z,36.75
2023-05-24T11:00:44.590Z,32.57
2023-05-24T11:01:42.798Z,34.55
2023-05-24T11:02:39.436Z,34.60
2023-05-24T11:03:36.861Z,37.65
2023-05-24T11:04:36.704Z,36.99
2023-05-24T11:05:48.774Z,38.35
2023-05-24T11:06:55.872Z,38.63
2023-05-24T11:07:58.843Z,38.70
2023-05-24T11:09:00.067Z,39.84
2023-05-24T11:09:59.920Z,40.09
2023-05-24T11:11:26.670Z,38.79
2023-05-24T11:12:31.498Z,38.87
2023-05-24T11:13:28.056Z,37.40
2023-05-24T11:14:27.451Z,40.06
2023-05-24T11:15:24.360Z,36.83
2023-05-24T11:16:35.218Z,35.63
2023-05-24T11:17:51.773Z,33.65
2023-05-24T11:18:55.784Z,35.98
2023-05-24T11:19:55.656Z,31.58
2023-05-24T11:20:52.890Z,33.66
2023-05-24T11:21:51.024Z,30.81
2023-05-24T11:22:47.658Z,30.88
2023-05-24T11:23:44.327Z,31.67
2023-05-24T11:24:41.487Z,30.67
2023-05-24T11:25:38.843Z,29.92
2023-05-24T11:26:36.165Z,30.42
2023-05-24T11:27:35.440Z,32.48
2023-05-24T11:28:32.847Z,32.97
2023-05-24T11:29:30.086Z,31.93
2023-05-24T11:30:26.666Z,34.39
2023-05-24T11:31:27.230Z,36.64
2023-05-24T11:32:25.243Z,33.04
2023-05-24T11:33:25.606Z,34.25
2023-05-24T11:34:22.288Z,33.40
2023-05-24T11:35:19.453Z,33.11
2023-05-24T11:36:16.376Z,32.70
2023-05-24T11:37:14.573Z,33.61
2023-05-24T11:38:14.381Z,33.18
2023-05-24T11:39:10.905Z,33.88
2023-05-24T11:40:10.409Z,32.14
2023-05-24T11:41:07.642Z,30.91
2023-05-24T11:42:04.893Z,30.58
2023-05-24T11:43:01.551Z,33.18
2023-05-24T11:43:58.842Z,29.84
2023-05-24T11:44:55.740Z,32.17
2023-05-24T11:45:52.844Z,33.07
2023-05-24T11:46:49.624Z,33.70
2023-05-24T11:47:46.277Z,35.17
2023-05-24T11:48:42.779Z,34.88
2023-05-24T11:49:39.325Z,34.50
2023-05-24T11:50:54.132Z,35.35
2023-05-24T11:51:52.404Z,33.36
2023-05-24T11:52:48.947Z,33.96
2023-05-24T11:53:45.960Z,35.34
2023-05-24T11:54:42.539Z,35.99
2023-05-24T11:55:42.559Z,36.94
2023-05-24T11:56:39.208Z,34.73
2023-05-24T11:57:42.658Z,33.59
2023-05-24T11:58:48.434Z,35.83
2023-05-24T11:59:45.165Z,38.21
2023-05-24T12:00:42.646Z,36.31
2023-05-24T12:01:39.392Z,37.06
2023-05-24T12:02:36.329Z,36.01
2023-05-24T12:03:33.417Z,35.52
2023-05-24T12:04:30.965Z,34.61
2023-05-24T12:05:31.765Z,34.08
2023-05-24T12:06:44.630Z,31.50
2023-05-24T12:07:41.317Z,35.65
2023-05-24T12:08:38.327Z,33.35
2023-05-24T12:09:34.919Z,32.16
2023-05-24T12:10:34.892Z,34.14
2023-05-24T12:11:32.459Z,33.83
2023-05-24T12:12:34.292Z,35.34
2023-05-24T12:13:41.773Z,32.33
2023-05-24T12:14:38.558Z,33.74
2023-05-24T12:15:35.223Z,32.18
2023-05-24T12:16:33.423Z,33.28
2023-05-24T12:17:30.205Z,31.59
2023-05-24T12:18:26.932Z,31.00
2023-05-24T12:19:33.288Z,31.82
2023-05-24T12:20:30.502Z,33.70
2023-05-24T12:21:30.473Z,33.73
2023-05-24T12:22:28.366Z,32.66
2023-05-24T12:23:29.693Z,33.90
2023-05-24T12:24:27.110Z,34.74
2023-05-24T12:25:26.163Z,35.16
2023-05-24T12:26:23.279Z,34.35
2023-05-24T12:27:19.820Z,35.45
2023-05-24T12:28:19.659Z,36.09